createdAt,value
2019-03-19T00:00:15.294Z,9.33
2019-03-19T00:02:44.017Z,6.93
2019-03-19T00:05:13.310Z,4.17
2019-03-19T00:07:42.308Z,6.10
2019-03-19T00:10:11.325Z,4.75
2019-03-19T00:12:40.087Z,5.03
2019-03-19T00:15:09.001Z,4.55
2019-03-19T00:17:37.973Z,13.20
2019-03-19T00:20:07.097Z,7.87
2019-03-19T00:22:35.861Z,6.07
2019-03-19T00:25:05.050Z,7.13
2019-03-19T00:27:33.773Z,5.70
2019-03-19T00:30:02.875Z,12.70
2019-03-19T00:32:31.856Z,7.03
2019-03-19T00:35:01.834Z,8.07
2019-03-19T00:37:31.138Z,7.22
2019-03-19T00:40:00.381Z,4.20
2019-03-19T00:42:29.155Z,6.57
2019-03-19T00:44:57.922Z,3.27
2019-03-19T00:47:26.954Z,1.53
2019-03-19T00:49:55.681Z,4.42
2019-03-19T00:52:24.476Z,3.90
2019-03-19T00:54:53.206Z,2.60
2019-03-19T00:57:21.935Z,3.87
2019-03-19T00:59:50.938Z,7.50
2019-03-19T01:02:19.684Z,7.30
2019-03-19T01:04:48.425Z,6.53
2019-03-19T01:07:17.175Z,4.13
2019-03-19T01:09:45.954Z,8.07
2019-03-19T01:12:14.937Z,5.10
2019-03-19T01:14:43.917Z,9.47
2019-03-19T01:17:12.946Z,2.83
2019-03-19T01:19:41.926Z,5.60
2019-03-19T01:22:10.923Z,9.08
2019-03-19T01:24:39.709Z,8.07
2019-03-19T01:27:08.696Z,11.60
2019-03-19T01:29:37.418Z,7.73
2019-03-19T01:32:06.162Z,7.90
2019-03-19T01:34:35.204Z,7.65
2019-03-19T01:37:04.271Z,4.13
2019-03-19T01:39:33.234Z,5.65
2019-03-19T01:42:01.998Z,3.17
2019-03-19T01:44:30.731Z,4.75
2019-03-19T01:46:59.855Z,2.87
2019-03-19T01:49:28.862Z,7.90
2019-03-19T01:51:57.831Z,7.87
2019-03-19T01:54:26.845Z,7.40
2019-03-19T01:56:56.081Z,6.10
2019-03-19T01:59:25.090Z,6.53
2019-03-19T02:01:53.813Z,4.05
2019-03-19T02:04:22.561Z,5.40
2019-03-19T02:06:51.335Z,3.15
2019-03-19T02:09:20.323Z,4.07
2019-03-19T02:11:49.293Z,8.07
2019-03-19T02:14:18.073Z,9.30
2019-03-19T02:16:47.961Z,2.33
2019-03-19T02:19:16.954Z,8.05
2019-03-19T02:21:45.718Z,2.87
2019-03-19T02:24:14.467Z,8.60
2019-03-19T02:26:43.687Z,3.90
2019-03-19T02:29:12.471Z,10.90
2019-03-19T02:31:41.471Z,9.23
2019-03-19T02:34:10.478Z,3.43
2019-03-19T02:36:39.977Z,5.13
2019-03-19T02:39:08.744Z,7.60
2019-03-19T02:41:37.768Z,9.60
2019-03-19T02:44:06.501Z,2.97
2019-03-19T02:46:35.596Z,4.90
2019-03-19T02:49:04.404Z,9.00
2019-03-19T02:51:33.158Z,5.03
2019-03-19T02:54:02.167Z,4.13
2019-03-19T02:56:32.985Z,2.23
2019-03-19T02:59:02.170Z,8.07
2019-03-19T03:01:30.922Z,10.20
2019-03-19T03:03:59.910Z,7.35
2019-03-19T03:06:29.772Z,6.73
2019-03-19T03:08:58.546Z,5.65
2019-03-19T03:11:27.274Z,9.60
2019-03-19T03:13:56.290Z,6.85
2019-03-19T03:16:25.077Z,10.90
2019-03-19T03:18:53.944Z,5.70
2019-03-19T03:21:23.767Z,8.97
2019-03-19T03:23:52.562Z,15.30
2019-03-19T03:26:21.803Z,10.82
2019-03-19T03:28:50.801Z,8.47
2019-03-19T03:31:19.543Z,6.67
2019-03-19T03:33:49.130Z,9.00
2019-03-19T03:36:18.285Z,11.53
2019-03-19T03:38:47.299Z,13.53
2019-03-19T03:41:16.363Z,12.17
2019-03-19T03:43:45.334Z,10.07
2019-03-19T03:46:14.347Z,10.93
2019-03-19T03:48:43.078Z,15.53
2019-03-19T03:51:12.080Z,9.73
2019-03-19T03:53:40.915Z,9.65
2019-03-19T03:56:10.187Z,10.93
2019-03-19T03:58:42.579Z,7.30
2019-03-19T04:01:11.339Z,5.67
2019-03-19T04:03:40.328Z,10.32
2019-03-19T04:06:09.251Z,17.73
2019-03-19T04:08:38.978Z,16.30
2019-03-19T04:11:08.023Z,14.63
2019-03-19T04:13:36.759Z,19.60
2019-03-19T04:16:05.636Z,8.17
2019-03-19T04:18:35.132Z,13.97
2019-03-19T04:21:04.190Z,15.32
2019-03-19T04:23:33.424Z,12.77
2019-03-19T04:26:02.442Z,10.83
2019-03-19T04:28:32.492Z,11.10
2019-03-19T04:31:01.235Z,18.23
2019-03-19T04:33:30.457Z,10.00
2019-03-19T04:35:59.277Z,9.57
2019-03-19T04:38:28.564Z,10.93
2019-03-19T04:40:57.633Z,10.47
2019-03-19T04:43:26.399Z,16.90
2019-03-19T04:45:55.218Z,12.53
2019-03-19T04:48:24.206Z,9.88
2019-03-19T04:50:53.463Z,21.03
2019-03-19T04:53:24.091Z,11.70
2019-03-19T04:55:52.902Z,13.00
2019-03-19T04:58:21.884Z,8.03
2019-03-19T05:00:50.629Z,5.73
2019-03-19T05:03:19.862Z,24.23
2019-03-19T05:05:48.918Z,10.45
2019-03-19T05:08:17.937Z,18.50
2019-03-19T05:10:47.177Z,14.47
2019-03-19T05:13:16.677Z,11.40
2019-03-19T05:15:45.435Z,11.27
2019-03-19T05:18:14.651Z,9.17
2019-03-19T05:20:43.654Z,27.70
2019-03-19T05:23:15.686Z,13.08
2019-03-19T05:25:44.722Z,12.17
2019-03-19T05:28:13.950Z,11.50
2019-03-19T05:30:42.673Z,15.10
2019-03-19T05:33:11.423Z,15.30
2019-03-19T05:35:40.662Z,15.10
2019-03-19T05:38:09.397Z,15.37
2019-03-19T05:40:38.162Z,13.37
2019-03-19T05:43:07.184Z,18.93
2019-03-19T05:45:35.926Z,14.60
2019-03-19T05:48:04.733Z,20.70
2019-03-19T05:50:36.513Z,14.13
2019-03-19T05:53:05.596Z,19.83
2019-03-19T05:55:34.347Z,29.13
2019-03-19T05:58:03.489Z,21.17
2019-03-19T06:00:33.587Z,20.63
2019-03-19T06:03:02.309Z,20.40
2019-03-19T06:05:31.079Z,22.57
2019-03-19T06:08:00.066Z,17.53
2019-03-19T06:10:28.907Z,15.37
2019-03-19T06:12:58.915Z,27.00
2019-03-19T06:15:27.943Z,18.80
2019-03-19T06:17:57.186Z,19.40
2019-03-19T06:20:25.958Z,20.13
2019-03-19T06:22:54.756Z,18.43
2019-03-19T06:25:23.779Z,15.40
2019-03-19T06:28:00.399Z,22.00
2019-03-19T06:30:23.517Z,22.90
2019-03-19T06:32:52.314Z,18.37
2019-03-19T06:35:21.451Z,16.90
2019-03-19T06:37:51.458Z,21.80
2019-03-19T06:40:20.264Z,14.93
2019-03-19T06:42:49.164Z,20.50
2019-03-19T06:45:18.320Z,25.17
2019-03-19T06:47:47.131Z,22.57
2019-03-19T06:50:15.971Z,21.87
2019-03-19T06:52:44.857Z,14.40
2019-03-19T06:55:13.765Z,16.70
2019-03-19T06:57:42.570Z,18.13
2019-03-19T07:00:19.065Z,18.80
2019-03-19T07:02:48.165Z,19.52
2019-03-19T07:05:17.290Z,19.60
2019-03-19T07:07:46.147Z,21.00
2019-03-19T07:10:15.359Z,16.70
2019-03-19T07:12:45.318Z,12.63
2019-03-19T07:15:14.631Z,18.77
2019-03-19T07:17:43.614Z,13.77
2019-03-19T07:20:13.682Z,13.38
2019-03-19T07:22:42.786Z,15.13
2019-03-19T07:25:11.687Z,19.20
2019-03-19T07:27:40.781Z,22.17
2019-03-19T07:30:12.031Z,19.37
2019-03-19T07:32:40.848Z,13.83
2019-03-19T07:35:10.321Z,15.93
2019-03-19T07:37:42.074Z,11.80
2019-03-19T07:40:11.350Z,22.70
2019-03-19T07:42:40.363Z,14.23
2019-03-19T07:45:11.782Z,17.13
2019-03-19T07:47:40.882Z,19.47
2019-03-19T07:50:11.382Z,17.50
2019-03-19T07:52:40.121Z,21.00
2019-03-19T07:55:09.033Z,20.67
2019-03-19T07:57:37.833Z,22.03
2019-03-19T08:00:07.800Z,14.63
2019-03-19T08:02:36.808Z,14.20
2019-03-19T08:05:06.679Z,19.32
2019-03-19T08:07:35.421Z,12.03
2019-03-19T08:10:06.836Z,19.10
2019-03-19T08:12:35.720Z,20.60
2019-03-19T08:15:05.231Z,15.00
2019-03-19T08:17:33.994Z,22.03
2019-03-19T08:20:03.114Z,19.23
2019-03-19T08:22:31.873Z,22.83
2019-03-19T08:25:00.851Z,25.87
2019-03-19T08:27:29.707Z,22.60
2019-03-19T08:29:58.818Z,15.23
2019-03-19T08:32:27.593Z,18.62
2019-03-19T08:34:56.422Z,19.13
2019-03-19T08:37:25.179Z,23.22
2019-03-19T08:39:53.936Z,19.47
2019-03-19T08:42:22.746Z,18.10
2019-03-19T08:44:51.739Z,17.07
2019-03-19T08:47:20.774Z,18.87
2019-03-19T08:49:50.043Z,18.20
2019-03-19T08:52:19.034Z,19.07
2019-03-19T08:54:47.818Z,14.60
2019-03-19T08:57:16.851Z,10.70
2019-03-19T08:59:45.626Z,21.93
2019-03-19T09:02:14.581Z,17.47
2019-03-19T09:04:43.378Z,13.83
2019-03-19T09:07:12.394Z,21.67
2019-03-19T09:09:41.495Z,23.00
2019-03-19T09:12:16.063Z,18.55
2019-03-19T09:14:46.030Z,16.43
2019-03-19T09:17:14.840Z,16.35
2019-03-19T09:19:43.596Z,16.77
2019-03-19T09:22:12.578Z,17.90
2019-03-19T09:24:41.329Z,25.93
2019-03-19T09:27:11.260Z,26.73
2019-03-19T09:29:40.258Z,19.77
2019-03-19T09:32:08.994Z,14.63
2019-03-19T09:34:37.988Z,13.73
2019-03-19T09:37:08.115Z,16.53
2019-03-19T09:39:36.875Z,17.62
2019-03-19T09:42:06.293Z,19.23
2019-03-19T09:44:35.399Z,25.02
2019-03-19T09:47:04.261Z,19.20
2019-03-19T09:49:33.274Z,15.17
2019-03-19T09:52:03.219Z,23.37
2019-03-19T09:54:32.323Z,30.57
2019-03-19T09:57:01.451Z,17.77
2019-03-19T09:59:30.200Z,31.33
2019-03-19T10:01:59.076Z,13.87
2019-03-19T10:04:28.134Z,18.83
2019-03-19T10:07:05.766Z,18.35
2019-03-19T10:09:27.632Z,19.90
2019-03-19T10:11:56.617Z,13.30
2019-03-19T10:14:25.398Z,18.23
2019-03-19T10:16:54.125Z,10.30
2019-03-19T10:19:23.170Z,22.03
2019-03-19T10:21:51.907Z,13.43
2019-03-19T10:24:20.898Z,12.45
2019-03-19T10:26:49.706Z,17.97
2019-03-19T10:29:18.684Z,14.35
2019-03-19T10:31:47.430Z,11.83
2019-03-19T10:34:16.495Z,15.30
2019-03-19T10:36:45.342Z,14.37
2019-03-19T10:39:14.396Z,16.10
2019-03-19T10:41:43.373Z,9.97
2019-03-19T10:44:12.250Z,12.33
2019-03-19T10:46:41.000Z,13.63
2019-03-19T10:49:09.734Z,24.77
2019-03-19T10:51:38.707Z,26.05
2019-03-19T10:54:07.506Z,9.03
2019-03-19T10:56:38.763Z,10.23
2019-03-19T10:59:06.713Z,13.13
2019-03-19T11:01:35.458Z,10.50
2019-03-19T11:04:04.291Z,14.70
2019-03-19T11:06:33.047Z,14.77
2019-03-19T11:09:01.888Z,8.95
2019-03-19T11:11:30.642Z,7.20
2019-03-19T11:13:59.626Z,11.80
2019-03-19T11:16:30.923Z,10.07
2019-03-19T11:18:59.910Z,6.93
2019-03-19T11:21:28.912Z,5.63
2019-03-19T11:23:57.934Z,10.20
2019-03-19T11:26:26.921Z,5.20
2019-03-19T11:28:55.913Z,7.60
2019-03-19T11:31:24.681Z,13.53
2019-03-19T11:33:53.727Z,5.23
2019-03-19T11:36:22.483Z,8.97
2019-03-19T11:38:51.871Z,9.23
2019-03-19T11:41:20.661Z,6.40
2019-03-19T11:43:49.924Z,9.93
2019-03-19T11:46:18.745Z,8.33
2019-03-19T11:48:48.088Z,10.80
2019-03-19T11:51:17.351Z,7.73
2019-03-19T11:53:46.349Z,3.33
2019-03-19T11:56:15.342Z,7.93
2019-03-19T11:58:44.080Z,10.05
2019-03-19T12:01:12.854Z,13.10
2019-03-19T12:03:41.837Z,6.97
2019-03-19T12:06:10.579Z,5.90
2019-03-19T12:08:39.797Z,10.47
2019-03-19T12:11:09.067Z,4.60
2019-03-19T12:13:38.053Z,7.00
2019-03-19T12:16:06.882Z,2.80
2019-03-19T12:18:36.134Z,11.77
2019-03-19T12:21:06.363Z,9.35
2019-03-19T12:23:35.673Z,8.50
2019-03-19T12:26:06.331Z,11.78
2019-03-19T12:28:39.640Z,8.07
2019-03-19T12:31:05.807Z,5.93
2019-03-19T12:33:40.872Z,6.73
2019-03-19T12:36:05.663Z,13.63
2019-03-19T12:38:37.778Z,14.30
2019-03-19T12:41:06.859Z,9.17
2019-03-19T12:43:35.830Z,7.30
2019-03-19T12:46:04.658Z,3.83
2019-03-19T12:48:40.066Z,3.60
2019-03-19T12:51:09.237Z,5.10
2019-03-19T12:53:38.314Z,5.40
2019-03-19T12:56:07.492Z,7.20
2019-03-19T12:58:36.530Z,13.25
2019-03-19T13:01:05.765Z,4.00
2019-03-19T13:03:35.243Z,4.00
2019-03-19T13:06:04.118Z,10.77
2019-03-19T13:08:33.135Z,4.07
2019-03-19T13:11:02.127Z,8.93
2019-03-19T13:13:31.173Z,7.83
2019-03-19T13:16:00.424Z,4.17
2019-03-19T13:18:29.283Z,4.27
2019-03-19T13:20:58.060Z,4.62
2019-03-19T13:23:27.060Z,8.07
2019-03-19T13:25:56.987Z,4.00
2019-03-19T13:28:26.249Z,4.73
2019-03-19T13:30:55.285Z,6.47
2019-03-19T13:33:25.367Z,5.13
2019-03-19T13:35:55.048Z,9.33
2019-03-19T13:38:23.946Z,8.95
2019-03-19T13:40:53.549Z,5.30
2019-03-19T13:43:22.739Z,6.40
2019-03-19T13:45:54.573Z,6.80
2019-03-19T13:48:23.449Z,9.03
2019-03-19T13:50:52.394Z,10.90
2019-03-19T13:53:21.626Z,3.33
2019-03-19T13:55:51.099Z,3.10
2019-03-19T13:58:19.954Z,4.80
2019-03-19T14:00:55.508Z,6.33
2019-03-19T14:03:20.463Z,8.63
2019-03-19T14:05:49.789Z,8.13
2019-03-19T14:08:18.705Z,4.13
2019-03-19T14:10:47.910Z,7.77
2019-03-19T14:13:17.130Z,4.27
2019-03-19T14:15:46.362Z,5.43
2019-03-19T14:18:15.725Z,3.47
2019-03-19T14:20:44.618Z,12.47
2019-03-19T14:23:13.533Z,15.08
2019-03-19T14:25:44.593Z,8.03
2019-03-19T14:28:13.458Z,5.80
2019-03-19T14:30:42.411Z,7.20
2019-03-19T14:33:11.915Z,11.50
2019-03-19T14:35:41.078Z,6.47
2019-03-19T14:38:09.989Z,5.30
2019-03-19T14:40:39.061Z,5.60
2019-03-19T14:43:08.027Z,4.30
2019-03-19T14:45:36.947Z,7.50
2019-03-19T14:48:06.416Z,4.93
2019-03-19T14:50:35.742Z,3.80
2019-03-19T14:53:04.880Z,13.73
2019-03-19T14:55:34.106Z,10.77
2019-03-19T14:58:03.563Z,8.47
2019-03-19T15:00:32.577Z,7.93
2019-03-19T15:03:01.442Z,4.20
2019-03-19T15:05:30.446Z,8.50
2019-03-19T15:07:59.502Z,5.50
2019-03-19T15:10:30.477Z,9.67
2019-03-19T15:13:00.059Z,5.58
2019-03-19T15:15:29.077Z,3.63
2019-03-19T15:17:58.305Z,5.83
2019-03-19T15:20:27.074Z,3.40
2019-03-19T15:22:56.280Z,9.73
2019-03-19T15:25:25.018Z,6.90
2019-03-19T15:27:54.002Z,3.37
2019-03-19T15:30:22.765Z,6.33
2019-03-19T15:32:52.007Z,8.87
2019-03-19T15:35:21.034Z,4.10
2019-03-19T15:37:49.792Z,5.77
2019-03-19T15:40:18.789Z,4.43
2019-03-19T15:42:48.039Z,9.23
2019-03-19T15:45:16.878Z,4.90
2019-03-19T15:47:45.759Z,6.40
2019-03-19T15:50:15.151Z,5.60
2019-03-19T15:52:44.481Z,4.57
2019-03-19T15:55:14.740Z,6.27
2019-03-19T15:57:43.671Z,8.33
2019-03-19T16:00:14.119Z,6.60
2019-03-19T16:02:43.010Z,2.30
2019-03-19T16:05:11.946Z,5.03
2019-03-19T16:07:41.243Z,3.63
2019-03-19T16:10:10.289Z,8.30
2019-03-19T16:12:39.032Z,6.33
2019-03-19T16:15:08.873Z,4.75
2019-03-19T16:17:37.597Z,6.73
2019-03-19T16:20:08.352Z,6.90
2019-03-19T16:22:37.333Z,10.00
2019-03-19T16:25:06.387Z,9.85
2019-03-19T16:27:35.731Z,4.27
2019-03-19T16:30:05.483Z,5.50
2019-03-19T16:32:34.216Z,6.60
2019-03-19T16:35:03.607Z,8.23
2019-03-19T16:37:32.776Z,4.78
2019-03-19T16:40:02.225Z,9.83
2019-03-19T16:42:31.612Z,10.32
2019-03-19T16:45:00.646Z,7.47
2019-03-19T16:47:29.479Z,4.23
2019-03-19T16:49:58.481Z,6.73
2019-03-19T16:52:27.234Z,7.73
2019-03-19T16:54:56.005Z,4.10
2019-03-19T16:57:24.998Z,3.93
2019-03-19T16:59:53.729Z,7.03
2019-03-19T17:02:22.518Z,7.87
2019-03-19T17:04:51.250Z,7.90
2019-03-19T17:07:20.003Z,4.20
2019-03-19T17:09:48.769Z,2.73
2019-03-19T17:12:18.006Z,6.03
2019-03-19T17:14:47.023Z,7.17
2019-03-19T17:17:16.754Z,9.10
2019-03-19T17:19:45.739Z,7.03
2019-03-19T17:22:14.498Z,8.28
2019-03-19T17:24:43.490Z,8.23
2019-03-19T17:27:12.201Z,5.10
2019-03-19T17:29:40.966Z,9.97
2019-03-19T17:32:13.207Z,7.20
2019-03-19T17:34:40.663Z,12.23
2019-03-19T17:37:09.671Z,8.13
2019-03-19T17:39:38.450Z,26.13
2019-03-19T17:42:09.579Z,16.90
2019-03-19T17:44:38.622Z,5.95
2019-03-19T17:47:07.353Z,15.43
2019-03-19T17:49:36.592Z,6.15
2019-03-19T17:52:05.353Z,8.40
2019-03-19T17:54:34.588Z,8.50
2019-03-19T17:57:03.922Z,8.40
2019-03-19T17:59:35.542Z,4.20
2019-03-19T18:02:04.374Z,7.33
2019-03-19T18:04:33.352Z,3.73
2019-03-19T18:07:02.115Z,5.50
2019-03-19T18:09:31.124Z,4.17
2019-03-19T18:11:59.893Z,2.62
2019-03-19T18:14:28.866Z,7.90
2019-03-19T18:16:57.594Z,13.87
2019-03-19T18:19:26.609Z,7.33
2019-03-19T18:21:55.590Z,8.37
2019-03-19T18:24:24.339Z,6.50
2019-03-19T18:26:53.734Z,2.90
2019-03-19T18:29:22.490Z,2.20
2019-03-19T18:31:51.236Z,8.80
2019-03-19T18:34:19.977Z,4.80
2019-03-19T18:36:49.227Z,5.20
2019-03-19T18:39:18.210Z,2.83
2019-03-19T18:41:47.246Z,1.13
2019-03-19T18:44:16.475Z,3.50
2019-03-19T18:46:45.247Z,1.57
2019-03-19T18:49:13.978Z,5.23
2019-03-19T18:51:42.711Z,9.83
2019-03-19T18:54:11.569Z,3.80
2019-03-19T18:56:40.579Z,2.57
2019-03-19T18:59:09.942Z,8.50
2019-03-19T19:01:39.054Z,1.43
2019-03-19T19:04:08.331Z,8.27
2019-03-19T19:06:37.402Z,3.87
2019-03-19T19:09:09.210Z,2.67
2019-03-19T19:11:39.019Z,5.93
2019-03-19T19:14:07.745Z,4.00
2019-03-19T19:16:36.880Z,5.53
2019-03-19T19:19:05.684Z,2.77
2019-03-19T19:21:34.462Z,5.30
2019-03-19T19:24:03.491Z,2.62
2019-03-19T19:26:32.720Z,4.00
2019-03-19T19:29:02.670Z,3.37
2019-03-19T19:31:31.768Z,5.97
2019-03-19T19:34:01.059Z,2.40
2019-03-19T19:36:30.015Z,2.50
2019-03-19T19:38:59.536Z,3.73
2019-03-19T19:41:29.011Z,7.28
2019-03-19T19:44:01.016Z,4.20
2019-03-19T19:46:30.012Z,5.60
2019-03-19T19:48:59.243Z,4.50
2019-03-19T19:51:28.385Z,5.03
2019-03-19T19:53:57.694Z,9.83
2019-03-19T19:56:27.232Z,4.53
2019-03-19T19:58:56.727Z,4.87
2019-03-19T20:01:25.917Z,4.20
2019-03-19T20:03:54.689Z,5.80
2019-03-19T20:06:23.473Z,9.60
2019-03-19T20:08:52.805Z,8.53
2019-03-19T20:11:21.630Z,3.97
2019-03-19T20:13:51.013Z,9.45
2019-03-19T20:16:20.274Z,4.60
2019-03-19T20:18:49.571Z,6.50
2019-03-19T20:21:18.357Z,5.80
2019-03-19T20:23:47.602Z,6.30
2019-03-19T20:26:16.719Z,6.23
2019-03-19T20:28:47.922Z,4.97
2019-03-19T20:31:17.014Z,11.38
2019-03-19T20:33:46.342Z,6.17
2019-03-19T20:36:15.126Z,8.98
2019-03-19T20:38:44.095Z,5.30
2019-03-19T20:41:13.008Z,4.83
2019-03-19T20:43:42.238Z,4.83
2019-03-19T20:46:10.994Z,5.20
2019-03-19T20:48:39.738Z,7.05
2019-03-19T20:51:08.764Z,8.50
2019-03-19T20:53:38.071Z,7.08
2019-03-19T20:56:06.820Z,6.20
2019-03-19T20:58:43.467Z,6.53
2019-03-19T21:01:07.103Z,4.13
2019-03-19T21:03:36.425Z,7.27
2019-03-19T21:06:05.653Z,4.37
2019-03-19T21:08:34.417Z,11.73
2019-03-19T21:11:03.440Z,3.03
2019-03-19T21:13:32.303Z,6.73
2019-03-19T21:16:01.426Z,10.08
2019-03-19T21:18:30.230Z,5.07
2019-03-19T21:20:59.736Z,4.33
2019-03-19T21:23:28.720Z,6.70
2019-03-19T21:25:57.807Z,9.03
2019-03-19T21:28:26.573Z,10.32
2019-03-19T21:30:55.652Z,9.40
2019-03-19T21:33:24.384Z,8.58
2019-03-19T21:35:53.694Z,5.77
2019-03-19T21:38:22.981Z,5.10
2019-03-19T21:40:52.121Z,5.17
2019-03-19T21:43:23.061Z,4.97
2019-03-19T21:45:52.021Z,3.63
2019-03-19T21:48:21.018Z,11.33
2019-03-19T21:50:50.265Z,8.37
2019-03-19T21:53:19.022Z,6.40
2019-03-19T21:55:49.087Z,10.48
2019-03-19T21:58:17.859Z,3.33
2019-03-19T22:00:46.915Z,5.63
2019-03-19T22:03:19.242Z,6.33
2019-03-19T22:05:48.114Z,4.90
2019-03-19T22:08:17.425Z,5.40
2019-03-19T22:10:46.263Z,9.57
2019-03-19T22:13:15.282Z,9.33
2019-03-19T22:15:44.101Z,5.83
2019-03-19T22:18:12.839Z,9.05
2019-03-19T22:20:41.847Z,7.50
2019-03-19T22:23:11.175Z,6.53
2019-03-19T22:25:40.145Z,4.40
2019-03-19T22:28:09.163Z,5.47
2019-03-19T22:30:37.914Z,7.13
2019-03-19T22:33:06.665Z,10.60
2019-03-19T22:35:37.154Z,4.28
2019-03-19T22:38:07.740Z,6.73
2019-03-19T22:40:36.664Z,9.53
2019-03-19T22:43:05.575Z,8.47
2019-03-19T22:45:34.299Z,7.17
2019-03-19T22:48:03.297Z,6.40
2019-03-19T22:50:32.210Z,5.90
2019-03-19T22:53:00.979Z,7.43
2019-03-19T22:55:29.748Z,10.30
2019-03-19T22:57:58.534Z,2.85
2019-03-19T23:00:40.643Z,3.60
2019-03-19T23:03:09.610Z,2.83
2019-03-19T23:05:38.671Z,9.27
2019-03-19T23:08:07.524Z,6.30
2019-03-19T23:10:36.475Z,5.23
2019-03-19T23:13:06.032Z,7.40
2019-03-19T23:15:35.158Z,7.80
2019-03-19T23:18:04.182Z,2.23
2019-03-19T23:20:33.252Z,3.53
2019-03-19T23:23:01.998Z,6.40
2019-03-19T23:25:30.997Z,2.08
2019-03-19T23:28:00.027Z,5.00
2019-03-19T23:30:28.945Z,8.68
2019-03-19T23:32:57.708Z,5.73
2019-03-19T23:35:26.798Z,6.85
2019-03-19T23:37:55.839Z,7.77
2019-03-19T23:40:24.657Z,4.23
2019-03-19T23:42:53.654Z,5.23
2019-03-19T23:45:22.411Z,9.50
2019-03-19T23:47:51.478Z,8.73
2019-03-19T23:50:20.307Z,5.70
2019-03-19T23:52:49.066Z,10.48
2019-03-19T23:55:17.866Z,5.30
2019-03-19T23:57:46.638Z,5.35
